LGTSLGLM

Guest
Details From LGTS - Thessalonik Makedonia
To LGLM - Limnos
Flight Number -
Tags generated
Created
Modified
Stats Distance 112 nm / 207 km
Max Altitude 8,200 ft / 2,499 m
Waypoints 3
Social Downloads 0
Likes 0
Share

Download

Looking for another format? Having issues loading an existing format? Contact us
Advertisement - Login to hide

Notes

Basic altitude profile: - Ascent Rate: 2500ft/min - Ascent Speed: 250kts - Cruise Altitude: 25000ft - Cruise Speed: 420kts - Descent Rate: 1500ft/min - Descent Speed: 250kts Options: - Use NATs: yes - Use PACOTS: yes - Use low airways: yes - Use high airways: yes

Route

LGTS ARNAS LGLM

ID Type Via Altitude (ft/m) Position (lat/lon) Dist (leg/tot) Name
O LGTS APT - 0 / 0 40.51952 / 22.97202 - / 0 nm Thessalonik Makedonia
ARNAS FIX - 8,200 / 2,499 40.52806 / 23.48056 23 / 23 nm
O LGLM APT - 0 / 0 39.91703 / 25.23635 88 / 111 nm Limnos

Altitude Profile

Advertisement - Login to hide

LGTS

Details ICAO LGTS (SKG)
Name Thessaloniki Makedonia International Airport
Region Greece
Timezone Europe/Athens (UTC+3.0)
Stats Elevation 21 ft / 6 m (AMSL)
Location 40.520100° 22.969100°
Runways 2
Magnetic Variation 4.966° E

METAR

LGTS 111020Z 21008KT 9999 FEW025 22/10 Q1017 NOSIG

Decode

TAF

TAF LGTS 110500Z 1106/1206 VRB03KT 9999 FEW030 BECMG 1109/1111 16012KT BECMG 1119/1121 VRB03KT

Decode

Departure Runways

ID Width Length Bearing (true/mag) Surface Threshold Overrun Markings Lighting
10 164 ft / 50 m 11,259 ft / 3,432 m 103.98° / 99.02° ASPHALT 0 ft / 0 m 0 ft / 0 m PREC-APP CENTERLINE EDGE THRESHOLD SALS
16 200 ft / 61 m 7,975 ft / 2,431 m 166.43° / 161.47° ASPHALT 0 ft / 0 m 0 ft / 0 m PREC-APP CENTERLINE EDGE THRESHOLD ALSF-II TDZ
28 164 ft / 50 m 11,259 ft / 3,432 m 284.01° / 279.04° ASPHALT 0 ft / 0 m 0 ft / 0 m PREC-APP CENTERLINE EDGE THRESHOLD ALSF-I
34 200 ft / 61 m 7,975 ft / 2,431 m 346.44° / 341.47° ASPHALT 0 ft / 0 m 0 ft / 0 m PREC-APP CENTERLINE EDGE THRESHOLD SALS

LGLM

Details ICAO LGLM (LXS)
Name Limnos
Region Greece
Timezone Europe/Athens (UTC+3.0)
Stats Elevation 14 ft / 4 m (AMSL)
Location 39.917200° 25.236400°
Runways 2
Magnetic Variation 5.196° E

METAR

LGLM 111020Z 04012G23KT CAVOK 16/08 Q1017

Decode

TAF

Not found

Destination Runways

ID Width Length Bearing (true/mag) Surface Threshold Overrun Markings Lighting
04L 98 ft / 30 m 8,333 ft / 2,540 m 43.11° / 37.92° ASPHALT 0 ft / 0 m 0 ft / 0 m VISUAL
04R 148 ft / 45 m 9,893 ft / 3,015 m 43.05° / 37.86° ASPHALT 0 ft / 0 m 0 ft / 0 m PREC-APP EDGE THRESHOLD ALSF-I REIL-OMNI
22L 148 ft / 45 m 9,893 ft / 3,015 m 223.07° / 217.87° ASPHALT 0 ft / 0 m 0 ft / 0 m PREC-APP EDGE THRESHOLD REIL-OMNI
22R 98 ft / 30 m 8,333 ft / 2,540 m 223.13° / 217.93° ASPHALT 0 ft / 0 m 0 ft / 0 m VISUAL

Popular Alternatives